Time;durP1;ratioP1;P1;durP2;ratioP2;P2;SDS_P1;SDS_P2;PMS_P1;PMS_P2;Temp;Humidity;BMP_temperature;BMP_pressure;BME280_temperature;BME280_humidity;BME280_pressure;Samples;Min_cycle;Max_cycle;Signal;HPM_P1;HPM_P2
2023/02/26 00:00:55;;;;;;;5.28;3.38;;;;;;;14.16;100.00;101189.66;2090216;28;20052;-75
2023/02/26 00:02:18;;;;;;;5.28;2.78;;;;;;;14.16;100.00;101184.38;2100591;28;20059;-75
2023/02/26 00:03:41;;;;;;;8.13;3.00;;;;;;;14.17;100.00;101201.19;2102393;28;20039;-75
2023/02/26 00:05:04;;;;;;;5.20;3.00;;;;;;;14.17;100.00;101186.16;2103161;28;20051;-74
2023/02/26 00:06:27;;;;;;;5.22;2.90;;;;;;;14.15;100.00;101193.19;2103522;28;20556;-75
2023/02/26 00:07:50;;;;;;;4.65;2.83;;;;;;;14.13;100.00;101186.97;2094061;28;20110;-75
2023/02/26 00:09:11;;;;;;;7.10;2.95;;;;;;;14.11;100.00;101183.41;2098386;28;20044;-75
2023/02/26 00:10:33;;;;;;;6.10;3.38;;;;;;;14.09;100.00;101197.56;2094904;28;20040;-75
2023/02/26 00:11:56;;;;;;;4.78;2.83;;;;;;;14.10;100.00;101189.63;2089149;28;20048;-75
2023/02/26 00:13:18;;;;;;;3.33;2.30;;;;;;;14.10;100.00;101181.66;2092038;28;20067;-74
2023/02/26 00:14:40;;;;;;;6.57;3.38;;;;;;;14.12;100.00;101193.16;2103321;28;20580;-75
2023/02/26 00:16:05;;;;;;;3.97;2.65;;;;;;;14.16;100.00;101199.41;2102191;28;20123;-75
2023/02/26 00:17:37;;;;;;;5.20;2.70;;;;;;;14.17;100.00;101186.16;2102299;28;20044;-75
2023/02/26 00:19:02;;;;;;;5.85;2.90;;;;;;;14.17;100.00;101188.81;2087959;28;20049;-75
2023/02/26 00:20:23;;;;;;;4.75;2.47;;;;;;;14.16;100.00;101176.41;2096823;28;20047;-74
2023/02/26 00:21:48;;;;;;;6.20;2.75;;;;;;;14.16;100.00;101167.53;2102878;28;20055;-75
2023/02/26 00:23:13;;;;;;;4.55;3.13;;;;;;;14.18;100.00;101187.00;2103142;28;20553;-75
2023/02/26 00:24:35;;;;;;;8.48;3.25;;;;;;;14.18;100.00;101192.31;2103275;28;20040;-75
2023/02/26 00:25:58;;;;;;;5.40;2.92;;;;;;;14.20;100.00;101186.16;2102844;28;20055;-75
2023/02/26 00:27:20;;;;;;;6.35;2.95;;;;;;;14.19;100.00;101189.69;2100356;28;20054;-75
2023/02/26 00:28:42;;;;;;;6.63;2.22;;;;;;;14.21;100.00;101179.97;2103183;28;20028;-75
2023/02/26 00:30:07;;;;;;;4.03;2.67;;;;;;;14.22;100.00;101189.72;2094361;28;20059;-75
2023/02/26 00:31:29;;;;;;;4.53;2.80;;;;;;;14.24;100.00;101184.44;2100630;28;20036;-75
2023/02/26 00:32:51;;;;;;;;;;;;;;;14.20;100.00;101182.59;2089659;28;20061;-75
2023/02/26 00:34:13;;;;;;;4.80;2.83;;;;;;;14.21;100.00;101187.03;2091958;28;19924;-75
2023/02/26 00:35:38;;;;;;;5.43;2.42;;;;;;;14.22;100.00;101183.50;2099692;28;20474;-75
2023/02/26 00:37:12;;;;;;;5.45;2.75;;;;;;;14.25;100.00;101188.84;2105466;28;20427;-75
2023/02/26 00:38:36;;;;;;;7.25;3.17;;;;;;;14.24;100.00;101187.94;2104651;28;20044;-75
2023/02/26 00:40:10;;;;;;;7.25;3.17;;;;;;;14.24;100.00;101187.09;2091259;28;20447;-74
2023/02/26 00:41:35;;;;;;;5.07;2.85;;;;;;;14.23;100.00;101194.16;2098571;28;20058;-75
2023/02/26 00:42:56;;;;;;;5.07;2.80;;;;;;;14.24;100.00;101193.25;2102890;28;20059;-74
2023/02/26 00:44:19;;;;;;;3.72;2.42;;;;;;;14.24;100.00;101190.59;2110943;28;20055;-75
2023/02/26 00:45:48;;;;;;;4.95;2.65;;;;;;;14.28;100.00;101189.75;2096870;28;20052;-75
2023/02/26 00:47:17;;;;;;;6.72;2.60;;;;;;;14.30;100.00;101197.75;2101625;28;20056;-75
2023/02/26 00:48:53;;;;;;;7.68;3.08;;;;;;;14.30;100.00;101193.31;2103851;28;20081;-75
2023/02/26 00:50:19;;;;;;;4.22;2.20;;;;;;;14.31;100.00;101184.44;2096437;28;20516;-75
2023/02/26 00:51:47;;;;;;;6.63;2.65;;;;;;;14.32;100.00;101194.19;2101113;28;20048;-75
2023/02/26 00:53:19;;;;;;;5.30;2.60;;;;;;;14.33;100.00;101197.75;2093990;28;20052;-75
2023/02/26 00:54:40;;;;;;;;;;;;;;;14.29;100.00;101180.91;2095093;28;20036;-76
2023/02/26 00:56:02;;;;;;;5.15;2.88;;;;;;;14.31;100.00;101192.41;2086099;28;19928;-75
2023/02/26 00:57:25;;;;;;;8.65;3.35;;;;;;;14.32;100.00;101195.97;2096845;28;20419;-76
2023/02/26 00:58:46;;;;;;;4.72;2.50;;;;;;;14.31;100.00;101184.44;2102560;28;20043;-76
2023/02/26 01:00:09;;;;;;;6.60;3.40;;;;;;;14.30;100.00;101195.09;2094477;28;20056;-75
2023/02/26 01:01:32;;;;;;;5.05;2.70;;;;;;;14.28;100.00;101191.53;2091866;28;20483;-75
2023/02/26 01:02:54;;;;;;;6.03;3.15;;;;;;;14.29;100.00;101201.28;2094415;28;20417;-75
2023/02/26 01:04:20;;;;;;;6.32;3.17;;;;;;;14.29;100.00;101202.16;2086113;28;20076;-75
2023/02/26 01:05:42;;;;;;;6.15;2.70;;;;;;;14.28;100.00;101200.38;2097171;28;20055;-74
2023/02/26 01:07:04;;;;;;;3.80;2.42;;;;;;;14.27;100.00;101201.25;2102761;28;20055;-75
2023/02/26 01:08:34;;;;;;;4.57;2.78;;;;;;;14.29;100.00;101206.59;2094382;28;20077;-75
2023/02/26 01:09:57;;;;;;;4.32;2.50;;;;;;;14.29;100.00;101193.31;2093808;28;20090;-75
2023/02/26 01:11:19;;;;;;;7.35;3.03;;;;;;;14.30;100.00;101195.97;2100184;28;20048;-75
2023/02/26 01:12:42;;;;;;;7.50;2.95;;;;;;;14.31;100.00;101191.53;2095913;28;20097;-75
2023/02/26 01:14:05;;;;;;;5.57;2.95;;;;;;;14.31;100.00;101191.53;2097264;28;20040;-75
2023/02/26 01:15:29;;;;;;;5.47;2.80;;;;;;;14.29;100.00;101195.97;2102559;28;20040;-75
2023/02/26 01:16:55;;;;;;;4.70;2.83;;;;;;;14.28;100.00;101195.06;2094432;28;20143;-75
2023/02/26 01:18:23;;;;;;;6.78;2.17;;;;;;;14.27;100.00;101190.63;2100878;28;20500;-75
2023/02/26 01:19:48;;;;;;;5.65;2.75;;;;;;;14.28;100.00;101195.06;2100066;28;20044;-74
2023/02/26 01:21:17;;;;;;;3.45;2.58;;;;;;;14.30;100.00;101192.44;2094087;28;20634;-75
2023/02/26 01:22:43;;;;;;;5.68;2.63;;;;;;;14.26;100.00;101196.81;2094618;28;20131;-75
2023/02/26 01:24:14;;;;;;;6.55;2.92;;;;;;;14.26;100.00;101195.94;2102820;28;20043;-75
2023/02/26 01:25:40;;;;;;;5.53;2.90;;;;;;;14.25;100.00;101200.34;2095408;28;20037;-75
2023/02/26 01:27:03;;;;;;;4.50;3.00;;;;;;;14.23;100.00;101185.28;2094569;28;20056;-75
2023/02/26 01:28:26;;;;;;;5.50;2.70;;;;;;;14.24;100.00;101192.38;2091997;28;20036;-75
2023/02/26 01:29:48;;;;;;;7.03;2.50;;;;;;;14.24;100.00;101187.94;2098389;28;20040;-75
2023/02/26 01:31:27;;;;;;;6.32;2.47;;;;;;;14.26;100.00;101187.97;2102345;28;20051;-75
2023/02/26 01:32:55;;;;;;;3.97;2.13;;;;;;;14.27;100.00;101190.63;2094595;28;20374;-75
2023/02/26 01:34:21;;;;;;;3.90;2.20;;;;;;;14.27;100.00;101187.09;2095062;28;20056;-75
2023/02/26 01:35:48;;;;;;;5.55;2.05;;;;;;;14.27;100.00;101184.44;2096032;28;20048;-75
2023/02/26 01:37:23;;;;;;;3.78;2.42;;;;;;;14.28;100.00;101187.09;2100196;28;20150;-75
2023/02/26 01:38:56;;;;;;;7.63;2.65;;;;;;;14.29;100.00;101193.31;2094953;28;20076;-75
2023/02/26 01:40:49;;;;;;;4.10;2.58;;;;;;;14.27;100.00;101187.97;2094111;28;20460;-75
2023/02/26 01:42:18;;;;;;;4.40;2.25;;;;;;;14.26;100.00;101196.81;2090798;28;20480;-74
2023/02/26 01:43:50;;;;;;;7.10;2.63;;;;;;;14.25;100.00;101196.78;2095014;28;20032;-75
2023/02/26 01:45:17;;;;;;;5.43;2.42;;;;;;;14.23;100.00;101190.59;2086928;28;20071;-75
2023/02/26 01:46:54;;;;;;;5.40;2.30;;;;;;;14.23;100.00;101194.16;2084497;28;20617;-74
2023/02/26 01:48:27;;;;;;;4.32;2.33;;;;;;;14.24;100.00;101198.56;2091820;28;20127;-74
2023/02/26 01:49:50;;;;;;;4.40;2.50;;;;;;;14.23;100.00;101191.50;2095042;28;20586;-75
2023/02/26 01:51:11;;;;;;;7.30;2.97;;;;;;;14.26;100.00;101199.47;2094092;28;20045;-74
2023/02/26 01:53:06;;;;;;;5.07;2.17;;;;;;;14.26;100.00;101199.47;2083067;28;20144;-74
2023/02/26 01:54:31;;;;;;;4.95;2.30;;;;;;;14.27;100.00;101201.25;2104287;28;20511;-74
2023/02/26 01:55:57;;;;;;;3.45;2.00;;;;;;;14.28;100.00;101210.13;2102569;28;20044;-75
2023/02/26 01:57:22;;;;;;;5.38;2.22;;;;;;;14.29;100.00;101199.50;2094444;28;20500;-74
2023/02/26 01:58:47;;;;;;;5.18;2.50;;;;;;;14.32;100.00;101211.91;2092042;28;20086;-74
2023/02/26 02:00:10;;;;;;;4.18;2.28;;;;;;;14.32;100.00;101212.78;2099879;28;20095;-75
2023/02/26 02:01:39;;;;;;;4.85;2.20;;;;;;;14.33;100.00;101227.84;2102687;28;20089;-75
2023/02/26 02:03:01;;;;;;;3.88;2.10;;;;;;;14.32;100.00;101215.44;2086009;28;20041;-75
2023/02/26 02:04:26;;;;;;;6.20;2.42;;;;;;;14.33;100.00;101214.56;2083083;28;20041;-75
2023/02/26 02:05:54;;;;;;;5.72;2.40;;;;;;;14.36;100.00;101221.69;2091842;28;20135;-75
2023/02/26 02:07:17;;;;;;;5.47;2.63;;;;;;;14.38;100.00;101227.91;2096545;28;20040;-74
2023/02/26 02:08:42;;;;;;;6.28;2.55;;;;;;;14.38;100.00;101225.25;2094707;28;20052;-75
2023/02/26 02:10:04;;;;;;;3.60;2.17;;;;;;;14.38;100.00;101227.03;2085521;28;20049;-75
2023/02/26 02:11:29;;;;;;;5.15;2.50;;;;;;;14.38;100.00;101222.59;2083098;28;20049;-75
2023/02/26 02:13:02;;;;;;;4.43;1.90;;;;;;;14.38;100.00;101222.59;2089164;28;20545;-74
2023/02/26 02:14:32;;;;;;;6.05;2.33;;;;;;;14.38;100.00;101233.22;2102496;28;20048;-74
2023/02/26 02:16:08;;;;;;;5.25;2.42;;;;;;;14.37;100.00;101228.78;2094842;28;20048;-75
2023/02/26 02:17:41;;;;;;;4.43;2.50;;;;;;;14.37;100.00;101228.78;2101884;28;20055;-75
2023/02/26 02:19:20;;;;;;;5.90;2.90;;;;;;;14.38;100.00;101232.34;2102606;28;20043;-74
2023/02/26 02:21:13;;;;;;;4.72;2.10;;;;;;;14.36;100.00;101240.28;2095906;28;20081;-75
2023/02/26 02:22:58;;;;;;;3.20;1.83;;;;;;;14.34;100.00;101237.59;2076224;28;20057;-74
2023/02/26 02:24:26;;;;;;;;;;;;;;;14.32;100.00;101238.47;2097044;28;20056;-75
2023/02/26 02:26:13;;;;;;;7.50;2.60;;;;;;;14.37;100.00;101236.75;2091723;28;19920;-75
2023/02/26 02:27:46;;;;;;;5.00;2.58;;;;;;;14.39;100.00;101236.78;2103355;28;20499;-75
2023/02/26 02:29:40;;;;;;;4.45;2.22;;;;;;;14.38;100.00;101237.66;2101352;28;20044;-75
2023/02/26 02:31:09;;;;;;;5.28;2.47;;;;;;;14.36;100.00;101233.22;2100280;28;20040;-75
2023/02/26 02:32:35;;;;;;;4.82;2.83;;;;;;;14.36;100.00;101225.25;2094626;28;20555;-75
2023/02/26 02:34:03;;;;;;;7.10;2.80;;;;;;;14.39;100.00;101228.81;2092235;28;20067;-75
2023/02/26 02:35:31;;;;;;;7.20;2.20;;;;;;;14.42;100.00;101228.84;2089023;28;20560;-75
2023/02/26 02:36:56;;;;;;;5.47;2.40;;;;;;;14.42;100.00;101229.75;2084494;28;20135;-75
2023/02/26 02:38:23;;;;;;;3.33;1.90;;;;;;;14.42;100.00;101215.56;2096433;28;20430;-75
2023/02/26 02:39:49;;;;;;;4.20;2.05;;;;;;;14.49;100.00;101204.09;2086233;28;20056;-75
2023/02/26 02:41:17;;;;;;;3.70;1.90;;;;;;;14.57;100.00;101211.22;2091967;28;20048;-75
2023/02/26 02:42:43;;;;;;;5.00;2.47;;;;;;;14.62;100.00;101205.97;2091363;28;20056;-75
2023/02/26 02:44:10;;;;;;;3.75;2.35;;;;;;;14.64;100.00;101213.03;2095795;28;20079;-75
2023/02/26 02:45:38;;;;;;;7.85;2.65;;;;;;;14.65;100.00;101203.31;2104618;28;20144;-75
2023/02/26 02:47:03;;;;;;;3.95;2.40;;;;;;;14.65;100.00;101203.31;2094600;28;20580;-75
2023/02/26 02:48:31;;;;;;;6.13;2.65;;;;;;;14.63;100.00;101199.78;2087234;28;20102;-75
2023/02/26 02:49:58;;;;;;;5.30;2.50;;;;;;;14.60;100.00;101202.41;2092529;28;20052;-75
2023/02/26 02:51:26;;;;;;;5.65;2.40;;;;;;;14.60;100.00;101213.91;2086341;28;20525;-75
2023/02/26 02:52:53;;;;;;;6.75;2.42;;;;;;;14.60;100.00;101208.59;2085022;28;20098;-75
2023/02/26 02:54:19;;;;;;;5.88;2.20;;;;;;;14.60;100.00;101191.78;2087642;28;20076;-74
2023/02/26 02:55:48;;;;;;;6.05;2.20;;;;;;;14.63;100.00;101215.72;2085945;28;20033;-75
2023/02/26 02:57:17;;;;;;;4.03;2.00;;;;;;;14.62;100.00;101213.94;2096485;28;20044;-75
2023/02/26 02:58:42;;;;;;;5.65;2.55;;;;;;;14.61;100.00;101190.91;2089765;28;20091;-75
2023/02/26 03:00:09;;;;;;;4.10;2.28;;;;;;;14.62;100.00;101209.50;2089602;28;20088;-75
2023/02/26 03:01:36;;;;;;;4.03;2.40;;;;;;;14.62;100.00;101211.28;2081156;28;20049;-75
2023/02/26 03:03:08;;;;;;;3.25;1.98;;;;;;;14.62;100.00;101213.94;2085363;28;20064;-74
2023/02/26 03:04:30;;;;;;;6.60;2.35;;;;;;;14.63;100.00;101218.38;2079646;28;20038;-75
2023/02/26 03:05:51;;;;;;;5.05;2.05;;;;;;;14.63;100.00;101211.28;2078996;28;20437;-75
2023/02/26 03:07:16;;;;;;;5.00;1.90;;;;;;;14.64;100.00;101201.53;2076639;28;20666;-75
2023/02/26 03:08:42;;;;;;;2.60;1.63;;;;;;;14.63;100.00;101218.38;2077363;28;20407;-75
2023/02/26 03:10:04;;;;;;;5.82;2.13;;;;;;;14.62;100.00;101219.25;2085364;28;20049;-75
2023/02/26 03:11:26;;;;;;;;;;;;;;;14.56;100.00;101216.56;2087034;28;20142;-75
2023/02/26 03:12:47;;;;;;;5.35;2.35;;;;;;;14.56;100.00;101229.84;2098252;28;19920;-75
2023/02/26 03:14:11;;;;;;;5.60;2.63;;;;;;;14.55;100.00;101223.63;2093577;28;20057;-75
2023/02/26 03:15:38;;;;;;;6.43;2.45;;;;;;;14.54;100.00;101219.19;2084374;28;20181;-74
2023/02/26 03:17:12;;;;;;;3.42;2.25;;;;;;;14.52;100.00;101220.06;2087662;28;20084;-74
2023/02/26 03:18:51;;;;;;;4.70;2.13;;;;;;;14.50;100.00;101216.50;2089292;28;20063;-75
2023/02/26 03:20:20;;;;;;;3.45;2.05;;;;;;;14.50;100.00;101217.41;2080099;28;20057;-74
2023/02/26 03:21:49;;;;;;;6.60;2.55;;;;;;;14.51;100.00;101219.16;2077790;28;20068;-75
2023/02/26 03:23:25;;;;;;;5.88;2.30;;;;;;;14.50;100.00;101213.84;2083202;28;20386;-75
2023/02/26 03:24:50;;;;;;;4.90;2.33;;;;;;;14.46;100.00;101220.00;2079033;28;20041;-75
2023/02/26 03:26:20;;;;;;;4.78;1.88;;;;;;;14.44;100.00;101219.13;2084503;28;20056;-74
2023/02/26 03:27:49;;;;;;;4.80;2.58;;;;;;;14.40;100.00;101204.03;2087909;28;20579;-75
2023/02/26 03:29:18;;;;;;;4.90;2.55;;;;;;;14.36;100.00;101198.69;2081854;28;20056;-74
2023/02/26 03:30:47;;;;;;;4.60;2.10;;;;;;;14.34;100.00;101195.09;2087890;28;20511;-75
2023/02/26 03:32:14;;;;;;;3.38;2.25;;;;;;;14.36;100.00;101217.28;2088125;28;20057;-75
2023/02/26 03:33:45;;;;;;;4.57;2.22;;;;;;;14.37;100.00;101210.19;2081679;28;20127;-75
2023/02/26 03:35:12;;;;;;;6.53;2.13;;;;;;;14.38;100.00;101205.78;2086403;28;20041;-75
2023/02/26 03:36:39;;;;;;;3.63;2.10;;;;;;;14.40;100.00;101190.75;2080790;28;20058;-77
2023/02/26 03:38:23;;;;;;;5.80;2.60;;;;;;;14.41;100.00;101211.13;2081081;28;20045;-75
2023/02/26 03:39:51;;;;;;;4.03;1.95;;;;;;;14.39;100.00;101202.25;2079370;28;20537;-75
2023/02/26 03:41:17;;;;;;;3.80;2.15;;;;;;;14.38;100.00;101208.44;2078124;28;20147;-75
2023/02/26 03:42:45;;;;;;;4.20;2.13;;;;;;;14.40;100.00;101209.34;2079164;28;20114;-75
2023/02/26 03:44:10;;;;;;;4.25;2.42;;;;;;;14.40;100.00;101209.34;2081006;28;20528;-75
2023/02/26 03:45:35;;;;;;;3.08;2.03;;;;;;;14.38;100.00;101211.97;2082499;28;20064;-75
2023/02/26 03:47:02;;;;;;;4.68;1.90;;;;;;;14.38;100.00;101211.09;2084387;28;20049;-76
2023/02/26 03:48:29;;;;;;;4.22;2.40;;;;;;;14.37;100.00;101212.84;2089235;28;20036;-75
2023/02/26 03:49:57;;;;;;;6.88;2.50;;;;;;;14.38;100.00;101208.44;2095415;28;20536;-75
2023/02/26 03:51:21;;;;;;;5.95;2.30;;;;;;;14.34;100.00;101192.47;2095149;28;20040;-75
2023/02/26 03:52:58;;;;;;;3.25;1.83;;;;;;;14.33;100.00;101201.31;2094175;28;20052;-75
2023/02/26 03:54:36;;;;;;;4.82;1.80;;;;;;;14.34;100.00;101205.75;2101872;28;20546;-75
2023/02/26 03:56:33;;;;;;;4.90;2.05;;;;;;;14.33;100.00;101203.06;2104713;28;20527;-75
2023/02/26 03:58:01;;;;;;;6.38;2.22;;;;;;;14.34;100.00;101173.88;2096124;28;20052;-75
2023/02/26 03:59:36;;;;;;;3.72;1.88;;;;;;;14.39;100.00;101205.78;2087635;28;20152;-75
2023/02/26 04:01:14;;;;;;;4.88;2.00;;;;;;;14.42;100.00;101196.97;2086344;28;20497;-75
2023/02/26 04:02:44;;;;;;;5.93;2.03;;;;;;;14.43;100.00;101191.69;2100712;28;20735;-75
2023/02/26 04:04:17;;;;;;;3.55;2.00;;;;;;;14.44;100.00;101176.63;2089404;28;20059;-75
2023/02/26 04:05:47;;;;;;;5.82;2.20;;;;;;;14.44;100.00;101200.53;2086773;28;20079;-76
2023/02/26 04:07:10;;;;;;;5.90;2.08;;;;;;;14.42;100.00;101208.50;2092718;28;20040;-75
2023/02/26 04:08:32;;;;;;;3.97;2.00;;;;;;;14.42;100.00;101197.84;2091159;28;20166;-76
2023/02/26 04:09:54;;;;;;;5.68;2.10;;;;;;;14.43;100.00;101194.34;2099932;28;20109;-75
2023/02/26 04:11:21;;;;;;;5.05;2.28;;;;;;;14.45;100.00;101196.97;2095959;28;20063;-75
2023/02/26 04:12:44;;;;;;;4.93;2.22;;;;;;;14.48;100.00;101205.88;2102911;28;20044;-75
2023/02/26 04:14:07;;;;;;;3.75;2.10;;;;;;;14.50;100.00;101206.78;2094124;28;20041;-75
2023/02/26 04:15:33;;;;;;;6.15;2.90;;;;;;;14.48;100.00;101202.31;2088569;28;20063;-76
2023/02/26 04:16:56;;;;;;;4.95;2.25;;;;;;;14.48;100.00;101207.63;2089924;28;20053;-76
2023/02/26 04:18:17;;;;;;;6.03;2.10;;;;;;;14.47;100.00;101201.44;2096803;28;20041;-75
2023/02/26 04:19:40;;;;;;;6.13;2.33;;;;;;;14.49;100.00;101205.00;2093996;28;20045;-76
2023/02/26 04:21:04;;;;;;;5.47;2.20;;;;;;;14.50;100.00;101201.47;2091278;28;20603;-76
2023/02/26 04:22:27;;;;;;;4.05;1.75;;;;;;;14.50;100.00;101195.25;2094074;28;20595;-76
2023/02/26 04:23:51;;;;;;;4.82;2.40;;;;;;;14.51;100.00;101189.94;2092494;28;20048;-75
2023/02/26 04:25:13;;;;;;;4.55;2.05;;;;;;;14.54;100.00;101202.34;2090904;28;20459;-75
2023/02/26 04:26:36;;;;;;;3.65;1.85;;;;;;;14.52;100.00;101197.03;2102764;28;20052;-76
2023/02/26 04:27:57;;;;;;;4.78;2.03;;;;;;;14.54;100.00;101197.03;2093529;28;20613;-76
2023/02/26 04:29:19;;;;;;;3.08;1.95;;;;;;;14.51;100.00;101200.56;2091450;28;20045;-76
2023/02/26 04:30:41;;;;;;;4.68;2.50;;;;;;;14.49;100.00;101194.38;2091617;28;20052;-76
2023/02/26 04:32:05;;;;;;;6.50;2.35;;;;;;;14.45;100.00;101191.66;2102616;28;20070;-75
2023/02/26 04:33:26;;;;;;;4.78;1.80;;;;;;;14.43;100.00;101196.09;2099954;28;20067;-75
2023/02/26 04:34:49;;;;;;;4.72;2.00;;;;;;;14.47;100.00;101192.56;2102338;28;20117;-75
2023/02/26 04:36:13;;;;;;;5.00;1.98;;;;;;;14.54;100.00;101187.31;2093528;28;20094;-75
2023/02/26 04:37:36;;;;;;;4.63;2.28;;;;;;;14.58;100.00;101213.00;2091762;28;20040;-75
2023/02/26 04:38:57;;;;;;;4.80;1.88;;;;;;;14.57;100.00;101189.13;2085821;28;20545;-75
2023/02/26 04:40:22;;;;;;;3.38;2.15;;;;;;;14.57;100.00;101192.63;2086123;28;20037;-75
2023/02/26 04:41:44;;;;;;;3.17;1.60;;;;;;;14.58;100.00;101205.03;2092216;28;20101;-75
2023/02/26 04:43:07;;;;;;;5.90;2.15;;;;;;;14.60;100.00;101207.72;2088143;28;20397;-75
2023/02/26 04:44:33;;;;;;;3.13;1.90;;;;;;;14.60;100.00;101210.38;2099861;28;20048;-76
2023/02/26 04:45:57;;;;;;;8.10;2.53;;;;;;;14.59;100.00;101213.91;2042412;28;1464857;-76
2023/02/26 04:47:19;;;;;;;6.10;2.00;;;;;;;14.58;100.00;101209.47;2091204;28;20405;-77
2023/02/26 04:48:43;;;;;;;5.93;2.53;;;;;;;14.56;100.00;101213.91;2084217;28;20492;-75
2023/02/26 04:50:06;;;;;;;4.68;2.15;;;;;;;14.55;100.00;101212.13;2089241;28;20048;-75
2023/02/26 04:51:29;;;;;;;3.97;1.90;;;;;;;14.55;100.00;101204.13;2093770;28;20032;-77
2023/02/26 04:52:51;;;;;;;6.22;1.85;;;;;;;14.56;100.00;101205.94;2092028;28;20147;-76
2023/02/26 04:54:14;;;;;;;4.90;2.20;;;;;;;14.58;100.00;101220.09;2090211;28;20056;-75
2023/02/26 04:55:37;;;;;;;5.05;2.53;;;;;;;14.59;100.00;101216.56;2090931;28;20044;-76
2023/02/26 04:57:00;;;;;;;4.75;2.10;;;;;;;14.57;100.00;101221.84;2090938;28;20048;-76
2023/02/26 04:58:22;;;;;;;4.18;2.40;;;;;;;14.55;100.00;101201.47;2091373;28;20496;-76
2023/02/26 04:59:44;;;;;;;4.28;1.98;;;;;;;14.57;100.00;101216.53;2086226;28;20115;-75
2023/02/26 05:01:08;;;;;;;3.95;1.80;;;;;;;14.59;100.00;101222.75;2091854;28;20469;-75
2023/02/26 05:02:30;;;;;;;4.65;1.70;;;;;;;14.62;100.00;101204.19;2090771;28;20089;-75
2023/02/26 05:03:52;;;;;;;3.45;1.75;;;;;;;14.63;100.00;101224.59;2091598;28;20074;-77
2023/02/26 05:05:16;;;;;;;4.30;1.90;;;;;;;14.62;100.00;101230.78;2083950;28;20068;-76
2023/02/26 05:06:38;;;;;;;3.10;2.10;;;;;;;14.61;100.00;101225.44;2085243;28;20105;-76
2023/02/26 05:08:01;;;;;;;3.75;2.45;;;;;;;14.59;100.00;101225.41;2088026;28;20521;-75
2023/02/26 05:09:22;;;;;;;3.70;1.77;;;;;;;14.60;100.00;101223.66;2091027;28;20044;-75
2023/02/26 05:10:45;;;;;;;2.75;1.75;;;;;;;14.60;100.00;101221.88;2090179;28;20056;-75
2023/02/26 05:12:07;;;;;;;6.68;2.33;;;;;;;14.61;100.00;101231.66;2092819;28;20052;-76
2023/02/26 05:13:29;;;;;;;4.65;2.20;;;;;;;14.65;100.00;101224.56;2093353;28;20068;-75
2023/02/26 05:14:50;;;;;;;4.90;2.10;;;;;;;14.66;100.00;101229.00;2091432;28;20681;-75
2023/02/26 05:16:13;;;;;;;6.57;2.22;;;;;;;14.68;100.00;101203.34;2098722;28;20036;-76
2023/02/26 05:17:35;;;;;;;6.28;2.05;;;;;;;14.69;100.00;101221.97;2093239;28;20108;-75
2023/02/26 05:18:58;;;;;;;6.75;2.35;;;;;;;14.73;100.00;101221.09;2091611;28;20052;-76
2023/02/26 05:20:21;;;;;;;6.40;2.60;;;;;;;14.78;100.00;101231.72;2093790;28;20079;-76
2023/02/26 05:21:43;;;;;;;6.25;1.75;;;;;;;14.80;100.00;101229.09;2091042;28;20060;-75
2023/02/26 05:23:06;;;;;;;7.32;2.22;;;;;;;14.82;100.00;101244.19;2091587;28;20139;-75
2023/02/26 05:24:27;;;;;;;4.63;1.98;;;;;;;14.85;100.00;101238.88;2096176;28;20045;-76
2023/02/26 05:25:51;;;;;;;4.85;2.15;;;;;;;14.90;100.00;101244.22;2083327;28;20060;-76
2023/02/26 05:27:13;;;;;;;7.15;2.63;;;;;;;14.93;100.00;101245.13;2083443;28;20041;-75
2023/02/26 05:28:40;;;;;;;4.03;2.17;;;;;;;14.94;100.00;101246.91;2090434;28;20043;-75
2023/02/26 05:30:02;;;;;;;5.68;1.90;;;;;;;14.96;100.00;101244.25;2085387;28;20055;-75
2023/02/26 05:31:26;;;;;;;7.55;2.78;;;;;;;15.00;100.00;101246.94;2085922;28;20509;-75
2023/02/26 05:32:48;;;;;;;4.55;2.10;;;;;;;15.03;100.00;101246.94;2093982;28;20044;-75
2023/02/26 05:34:11;;;;;;;4.60;1.90;;;;;;;15.07;100.00;101251.41;2094080;28;20110;-74
2023/02/26 05:35:33;;;;;;;2.47;1.67;;;;;;;15.12;100.00;101244.34;2094136;28;20063;-75
2023/02/26 05:36:57;;;;;;;3.33;1.70;;;;;;;15.16;100.00;101246.13;2107725;28;20617;-75
2023/02/26 05:38:20;;;;;;;4.07;2.30;;;;;;;15.23;100.00;101259.47;2096863;28;20125;-75
2023/02/26 05:39:41;;;;;;;5.82;2.15;;;;;;;15.26;100.00;101254.16;2099674;28;20040;-75
2023/02/26 05:41:03;;;;;;;4.82;1.77;;;;;;;15.30;100.00;101246.16;2097372;28;20089;-75
2023/02/26 05:42:26;;;;;;;3.90;1.85;;;;;;;15.34;100.00;101260.41;2094247;28;20510;-75
2023/02/26 05:43:48;;;;;;;6.68;1.88;;;;;;;15.38;100.00;101254.19;2097644;28;20506;-75
2023/02/26 05:45:10;;;;;;;3.72;2.08;;;;;;;15.39;100.00;101264.84;2101626;28;20081;-75
2023/02/26 05:46:32;;;;;;;3.38;1.67;;;;;;;15.42;100.00;101262.22;2091587;28;20499;-75
2023/02/26 05:47:54;;;;;;;3.33;1.92;;;;;;;15.46;100.00;101256.00;2089616;28;20044;-75
2023/02/26 05:49:17;;;;;;;3.85;1.67;;;;;;;15.52;100.00;101252.47;2098660;28;20855;-76
2023/02/26 05:50:39;;;;;;;5.10;2.05;;;;;;;15.57;100.00;101258.72;2099558;28;20044;-76
2023/02/26 05:52:03;;;;;;;4.20;1.77;;;;;;;15.62;100.00;101264.94;2104692;28;20040;-76
2023/02/26 05:53:26;;;;;;;4.38;1.70;;;;;;;15.69;100.00;101260.53;2103745;28;20051;-75
2023/02/26 05:54:47;;;;;;;4.95;2.33;;;;;;;15.78;100.00;101247.25;2094220;28;20040;-76
2023/02/26 05:56:10;;;;;;;5.28;1.70;;;;;;;15.85;100.00;101265.91;2098599;28;20048;-75
2023/02/26 05:57:31;;;;;;;5.95;2.30;;;;;;;15.92;100.00;101275.69;2101167;28;20106;-75
2023/02/26 05:58:54;;;;;;;3.70;1.58;;;;;;;15.97;100.00;101265.03;2102088;28;20044;-75
2023/02/26 06:00:17;;;;;;;7.28;2.53;;;;;;;16.05;100.00;101273.94;2107756;28;20043;-75
2023/02/26 06:01:39;;;;;;;4.18;1.73;;;;;;;16.12;100.00;101266.84;2104047;28;20048;-75
2023/02/26 06:03:01;;;;;;;4.25;1.50;;;;;;;16.17;100.00;101268.63;2104772;28;20040;-75
2023/02/26 06:04:24;;;;;;;6.32;2.10;;;;;;;16.25;100.00;101279.28;2102221;28;20044;-75
2023/02/26 06:05:46;;;;;;;2.67;1.55;;;;;;;16.27;100.00;101274.84;2100339;28;20408;-75
2023/02/26 06:07:10;;;;;;;3.65;2.00;;;;;;;16.31;100.00;101277.50;2091315;28;20040;-75
2023/02/26 06:08:32;;;;;;;3.95;1.60;;;;;;;16.35;100.00;101279.28;2091261;28;20036;-75
2023/02/26 06:09:53;;;;;;;4.55;1.75;;;;;;;16.39;100.00;101276.63;2094139;28;20094;-75
2023/02/26 06:11:16;;;;;;;4.55;1.95;;;;;;;16.42;100.00;101293.50;2087494;28;20094;-75
2023/02/26 06:12:37;;;;;;;3.75;2.25;;;;;;;16.45;100.00;101290.84;2094182;28;20036;-75
2023/02/26 06:14:00;;;;;;;4.97;1.88;;;;;;;16.49;100.00;101299.72;2102136;28;20496;-75
2023/02/26 06:15:23;;;;;;;7.00;1.90;;;;;;;16.51;100.00;101304.16;2093785;28;20132;-75
2023/02/26 06:16:46;;;;;;;4.25;1.70;;;;;;;16.54;100.00;101280.16;2096031;28;20508;-75
2023/02/26 06:18:07;;;;;;;2.47;1.35;;;;;;;16.57;100.00;101292.59;2101468;28;20051;-76
2023/02/26 06:19:30;;;;;;;6.20;1.92;;;;;;;16.59;100.00;101285.50;2096326;28;20037;-75
2023/02/26 06:20:52;;;;;;;3.50;1.88;;;;;;;16.60;100.00;101306.88;2092103;28;20082;-76
2023/02/26 06:22:17;;;;;;;4.93;2.08;;;;;;;16.61;100.00;101295.28;2094846;28;20052;-74
2023/02/26 06:23:38;;;;;;;6.18;1.90;;;;;;;16.59;100.00;101302.38;2110605;28;20040;-76
2023/02/26 06:25:00;;;;;;;6.97;2.22;;;;;;;16.62;100.00;101312.19;2104848;28;20135;-75
2023/02/26 06:26:21;;;;;;;4.60;2.20;;;;;;;16.70;100.00;101310.41;2093874;28;20049;-74
2023/02/26 06:27:44;;;;;;;3.08;1.88;;;;;;;16.77;100.00;101306.84;2090671;28;20071;-75
2023/02/26 06:29:07;;;;;;;3.80;1.70;;;;;;;16.84;100.00;101310.41;2091236;28;20239;-75
2023/02/26 06:30:28;;;;;;;7.47;1.80;;;;;;;16.87;100.00;101305.94;2096681;28;20119;-75
2023/02/26 06:31:51;;;;;;;6.43;1.95;;;;;;;16.92;100.00;101317.50;2095887;28;20048;-75
2023/02/26 06:33:12;;;;;;;4.68;1.50;;;;;;;16.98;100.00;101313.94;2093812;28;20400;-75
2023/02/26 06:34:35;;;;;;;6.05;2.45;;;;;;;17.04;100.00;101316.59;2095406;28;20045;-74